sensor_id;sensor_type;location;lat;lon;timestamp;P1;durP1;ratioP1;P2;durP2;ratioP2
69087;SDS011;56190;43.562;5.036;2023-02-01T00:02:21;3.97;;;2.55;;
69087;SDS011;56190;43.562;5.036;2023-02-01T00:04:46;3.03;;;2.50;;
69087;SDS011;56190;43.562;5.036;2023-02-01T00:07:12;3.35;;;2.33;;
69087;SDS011;56190;43.562;5.036;2023-02-01T00:09:37;2.95;;;2.42;;
69087;SDS011;56190;43.562;5.036;2023-02-01T00:12:02;3.58;;;2.60;;
69087;SDS011;56190;43.562;5.036;2023-02-01T00:14:28;2.80;;;2.30;;
69087;SDS011;56190;43.562;5.036;2023-02-01T00:16:53;3.35;;;2.40;;
69087;SDS011;56190;43.562;5.036;2023-02-01T00:19:19;3.53;;;2.30;;
69087;SDS011;56190;43.562;5.036;2023-02-01T00:21:44;2.72;;;2.22;;
69087;SDS011;56190;43.562;5.036;2023-02-01T00:24:10;3.15;;;2.40;;
69087;SDS011;56190;43.562;5.036;2023-02-01T00:26:39;2.95;;;2.22;;
69087;SDS011;56190;43.562;5.036;2023-02-01T00:29:05;3.63;;;2.40;;
69087;SDS011;56190;43.562;5.036;2023-02-01T00:31:31;2.55;;;2.30;;
69087;SDS011;56190;43.562;5.036;2023-02-01T00:33:56;3.67;;;2.60;;
69087;SDS011;56190;43.562;5.036;2023-02-01T00:36:22;2.95;;;2.45;;
69087;SDS011;56190;43.562;5.036;2023-02-01T00:38:47;3.47;;;2.42;;
69087;SDS011;56190;43.562;5.036;2023-02-01T00:41:16;3.47;;;2.20;;
69087;SDS011;56190;43.562;5.036;2023-02-01T00:43:42;2.67;;;2.10;;
69087;SDS011;56190;43.562;5.036;2023-02-01T00:46:08;2.40;;;2.20;;
69087;SDS011;56190;43.562;5.036;2023-02-01T00:48:34;2.63;;;2.10;;
69087;SDS011;56190;43.562;5.036;2023-02-01T00:50:59;3.17;;;2.60;;
69087;SDS011;56190;43.562;5.036;2023-02-01T00:53:25;4.47;;;2.50;;
69087;SDS011;56190;43.562;5.036;2023-02-01T00:55:51;3.95;;;2.13;;
69087;SDS011;56190;43.562;5.036;2023-02-01T00:58:16;2.65;;;2.42;;
69087;SDS011;56190;43.562;5.036;2023-02-01T01:00:41;4.05;;;2.63;;
69087;SDS011;56190;43.562;5.036;2023-02-01T01:03:06;3.40;;;2.55;;
69087;SDS011;56190;43.562;5.036;2023-02-01T01:05:48;4.47;;;2.65;;
69087;SDS011;56190;43.562;5.036;2023-02-01T01:08:14;3.72;;;2.40;;
69087;SDS011;56190;43.562;5.036;2023-02-01T01:10:40;3.50;;;2.30;;
69087;SDS011;56190;43.562;5.036;2023-02-01T01:13:05;3.10;;;2.58;;
69087;SDS011;56190;43.562;5.036;2023-02-01T01:15:31;3.10;;;2.13;;
69087;SDS011;56190;43.562;5.036;2023-02-01T01:17:56;4.75;;;3.42;;
69087;SDS011;56190;43.562;5.036;2023-02-01T01:20:21;14.20;;;9.38;;
69087;SDS011;56190;43.562;5.036;2023-02-01T01:22:47;9.50;;;7.38;;
69087;SDS011;56190;43.562;5.036;2023-02-01T01:25:12;11.70;;;7.72;;
69087;SDS011;56190;43.562;5.036;2023-02-01T01:27:38;18.83;;;13.15;;
69087;SDS011;56190;43.562;5.036;2023-02-01T01:30:03;15.25;;;10.35;;
69087;SDS011;56190;43.562;5.036;2023-02-01T01:32:29;6.70;;;4.25;;
69087;SDS011;56190;43.562;5.036;2023-02-01T01:34:54;9.93;;;5.82;;
69087;SDS011;56190;43.562;5.036;2023-02-01T01:37:19;3.60;;;2.47;;
69087;SDS011;56190;43.562;5.036;2023-02-01T01:39:44;2.42;;;2.10;;
69087;SDS011;56190;43.562;5.036;2023-02-01T01:42:11;8.55;;;5.20;;
69087;SDS011;56190;43.562;5.036;2023-02-01T01:44:57;21.45;;;12.15;;
69087;SDS011;56190;43.562;5.036;2023-02-01T01:47:22;6.43;;;4.05;;
69087;SDS011;56190;43.562;5.036;2023-02-01T01:49:48;3.33;;;2.70;;
69087;SDS011;56190;43.562;5.036;2023-02-01T01:52:14;4.90;;;3.78;;
69087;SDS011;56190;43.562;5.036;2023-02-01T01:54:46;4.57;;;3.10;;
69087;SDS011;56190;43.562;5.036;2023-02-01T01:57:20;5.78;;;4.05;;
69087;SDS011;56190;43.562;5.036;2023-02-01T01:59:48;5.13;;;3.15;;
69087;SDS011;56190;43.562;5.036;2023-02-01T02:02:14;2.85;;;2.58;;
69087;SDS011;56190;43.562;5.036;2023-02-01T02:04:40;2.92;;;2.00;;
69087;SDS011;56190;43.562;5.036;2023-02-01T02:07:08;2.75;;;1.90;;
69087;SDS011;56190;43.562;5.036;2023-02-01T02:09:34;2.75;;;2.08;;
69087;SDS011;56190;43.562;5.036;2023-02-01T02:12:00;2.03;;;1.40;;
69087;SDS011;56190;43.562;5.036;2023-02-01T02:14:25;2.92;;;1.60;;
69087;SDS011;56190;43.562;5.036;2023-02-01T02:27:38;2.95;;;1.50;;
69087;SDS011;56190;43.562;5.036;2023-02-01T02:35:29;4.50;;;3.33;;
69087;SDS011;56190;43.562;5.036;2023-02-01T02:38:00;3.58;;;2.08;;
69087;SDS011;56190;43.562;5.036;2023-02-01T02:40:35;1.77;;;1.65;;
69087;SDS011;56190;43.562;5.036;2023-02-01T02:46:14;2.15;;;1.63;;
69087;SDS011;56190;43.562;5.036;2023-02-01T02:48:55;3.70;;;1.80;;
69087;SDS011;56190;43.562;5.036;2023-02-01T02:51:30;2.13;;;1.50;;
69087;SDS011;56190;43.562;5.036;2023-02-01T02:54:21;3.90;;;1.65;;
69087;SDS011;56190;43.562;5.036;2023-02-01T02:57:07;2.10;;;1.50;;
69087;SDS011;56190;43.562;5.036;2023-02-01T02:59:52;1.85;;;1.67;;
69087;SDS011;56190;43.562;5.036;2023-02-01T03:02:36;1.85;;;1.60;;
69087;SDS011;56190;43.562;5.036;2023-02-01T03:05:21;2.17;;;1.63;;
69087;SDS011;56190;43.562;5.036;2023-02-01T03:10:26;1.92;;;1.40;;
69087;SDS011;56190;43.562;5.036;2023-02-01T03:12:52;1.77;;;1.25;;
69087;SDS011;56190;43.562;5.036;2023-02-01T03:15:40;2.72;;;1.40;;
69087;SDS011;56190;43.562;5.036;2023-02-01T03:18:43;2.50;;;1.27;;
69087;SDS011;56190;43.562;5.036;2023-02-01T03:21:00;1.73;;;1.33;;
69087;SDS011;56190;43.562;5.036;2023-02-01T03:23:29;1.73;;;1.30;;
69087;SDS011;56190;43.562;5.036;2023-02-01T03:25:55;3.92;;;3.53;;
69087;SDS011;56190;43.562;5.036;2023-02-01T03:28:22;6.53;;;5.80;;
69087;SDS011;56190;43.562;5.036;2023-02-01T03:30:48;3.08;;;2.75;;
69087;SDS011;56190;43.562;5.036;2023-02-01T03:33:18;4.32;;;3.67;;
69087;SDS011;56190;43.562;5.036;2023-02-01T03:40:49;12.70;;;11.40;;
69087;SDS011;56190;43.562;5.036;2023-02-01T03:43:16;10.52;;;9.52;;
69087;SDS011;56190;43.562;5.036;2023-02-01T03:45:53;8.38;;;7.57;;
69087;SDS011;56190;43.562;5.036;2023-02-01T03:48:19;4.10;;;3.80;;
69087;SDS011;56190;43.562;5.036;2023-02-01T03:50:47;3.90;;;3.50;;
69087;SDS011;56190;43.562;5.036;2023-02-01T03:53:14;9.13;;;8.38;;
69087;SDS011;56190;43.562;5.036;2023-02-01T03:55:42;8.30;;;7.60;;
69087;SDS011;56190;43.562;5.036;2023-02-01T03:58:09;9.07;;;8.25;;
69087;SDS011;56190;43.562;5.036;2023-02-01T04:00:35;7.22;;;6.47;;
69087;SDS011;56190;43.562;5.036;2023-02-01T04:03:01;8.15;;;7.45;;
69087;SDS011;56190;43.562;5.036;2023-02-01T04:05:27;5.45;;;4.95;;
69087;SDS011;56190;43.562;5.036;2023-02-01T04:07:52;11.75;;;10.55;;
69087;SDS011;56190;43.562;5.036;2023-02-01T04:10:19;9.18;;;8.27;;
69087;SDS011;56190;43.562;5.036;2023-02-01T04:12:44;12.88;;;11.68;;
69087;SDS011;56190;43.562;5.036;2023-02-01T04:15:09;7.45;;;6.78;;
69087;SDS011;56190;43.562;5.036;2023-02-01T04:17:35;10.10;;;9.20;;
69087;SDS011;56190;43.562;5.036;2023-02-01T04:20:00;3.75;;;3.45;;
69087;SDS011;56190;43.562;5.036;2023-02-01T04:22:25;3.97;;;3.45;;
69087;SDS011;56190;43.562;5.036;2023-02-01T04:24:50;3.72;;;3.30;;
69087;SDS011;56190;43.562;5.036;2023-02-01T04:27:15;3.85;;;3.45;;
69087;SDS011;56190;43.562;5.036;2023-02-01T04:29:41;4.35;;;3.95;;
69087;SDS011;56190;43.562;5.036;2023-02-01T04:32:06;3.10;;;2.30;;
69087;SDS011;56190;43.562;5.036;2023-02-01T04:34:31;4.10;;;3.70;;
69087;SDS011;56190;43.562;5.036;2023-02-01T04:36:57;2.88;;;2.58;;
69087;SDS011;56190;43.562;5.036;2023-02-01T04:39:22;2.05;;;1.88;;
69087;SDS011;56190;43.562;5.036;2023-02-01T04:41:47;2.97;;;2.03;;
69087;SDS011;56190;43.562;5.036;2023-02-01T04:44:13;3.30;;;2.95;;
69087;SDS011;56190;43.562;5.036;2023-02-01T04:46:39;3.47;;;2.45;;
69087;SDS011;56190;43.562;5.036;2023-02-01T04:49:04;4.00;;;2.60;;
69087;SDS011;56190;43.562;5.036;2023-02-01T04:51:29;4.18;;;2.20;;
69087;SDS011;56190;43.562;5.036;2023-02-01T04:53:55;2.67;;;2.00;;
69087;SDS011;56190;43.562;5.036;2023-02-01T04:56:20;3.40;;;1.80;;
69087;SDS011;56190;43.562;5.036;2023-02-01T04:58:46;1.90;;;1.70;;
69087;SDS011;56190;43.562;5.036;2023-02-01T05:01:11;2.08;;;1.85;;
69087;SDS011;56190;43.562;5.036;2023-02-01T05:03:36;3.17;;;2.15;;
69087;SDS011;56190;43.562;5.036;2023-02-01T05:06:01;3.10;;;2.00;;
69087;SDS011;56190;43.562;5.036;2023-02-01T05:08:29;3.28;;;2.17;;
69087;SDS011;56190;43.562;5.036;2023-02-01T05:10:54;2.00;;;1.80;;
69087;SDS011;56190;43.562;5.036;2023-02-01T05:13:19;3.03;;;1.75;;
69087;SDS011;56190;43.562;5.036;2023-02-01T05:16:03;1.80;;;1.70;;
69087;SDS011;56190;43.562;5.036;2023-02-01T05:18:29;2.38;;;2.00;;
69087;SDS011;56190;43.562;5.036;2023-02-01T05:20:54;2.45;;;1.95;;
69087;SDS011;56190;43.562;5.036;2023-02-01T05:23:19;2.40;;;1.80;;
69087;SDS011;56190;43.562;5.036;2023-02-01T05:25:45;1.80;;;1.48;;
69087;SDS011;56190;43.562;5.036;2023-02-01T05:28:10;1.50;;;1.40;;
69087;SDS011;56190;43.562;5.036;2023-02-01T05:30:35;2.40;;;1.63;;
69087;SDS011;56190;43.562;5.036;2023-02-01T05:33:01;2.33;;;2.08;;
69087;SDS011;56190;43.562;5.036;2023-02-01T05:35:26;2.47;;;1.90;;
69087;SDS011;56190;43.562;5.036;2023-02-01T05:37:51;2.35;;;2.15;;
69087;SDS011;56190;43.562;5.036;2023-02-01T05:40:17;2.22;;;1.60;;
69087;SDS011;56190;43.562;5.036;2023-02-01T05:42:42;2.67;;;1.95;;
69087;SDS011;56190;43.562;5.036;2023-02-01T05:45:07;2.90;;;1.77;;
69087;SDS011;56190;43.562;5.036;2023-02-01T05:47:33;2.63;;;2.08;;
69087;SDS011;56190;43.562;5.036;2023-02-01T05:49:58;2.67;;;1.77;;
69087;SDS011;56190;43.562;5.036;2023-02-01T05:52:23;1.95;;;1.73;;
69087;SDS011;56190;43.562;5.036;2023-02-01T05:54:48;3.17;;;1.90;;
69087;SDS011;56190;43.562;5.036;2023-02-01T05:57:14;2.70;;;1.90;;
69087;SDS011;56190;43.562;5.036;2023-02-01T05:59:39;2.45;;;1.92;;
69087;SDS011;56190;43.562;5.036;2023-02-01T06:02:10;2.95;;;2.13;;
69087;SDS011;56190;43.562;5.036;2023-02-01T06:04:35;2.88;;;2.00;;
69087;SDS011;56190;43.562;5.036;2023-02-01T06:07:01;2.35;;;1.85;;
69087;SDS011;56190;43.562;5.036;2023-02-01T06:09:26;4.53;;;2.55;;
69087;SDS011;56190;43.562;5.036;2023-02-01T06:11:53;5.05;;;2.00;;
69087;SDS011;56190;43.562;5.036;2023-02-01T06:14:18;3.50;;;2.20;;
69087;SDS011;56190;43.562;5.036;2023-02-01T06:16:43;2.28;;;1.80;;
69087;SDS011;56190;43.562;5.036;2023-02-01T06:19:10;2.80;;;2.20;;
69087;SDS011;56190;43.562;5.036;2023-02-01T06:21:35;3.30;;;1.90;;
69087;SDS011;56190;43.562;5.036;2023-02-01T06:24:01;2.75;;;1.80;;
69087;SDS011;56190;43.562;5.036;2023-02-01T06:26:26;3.15;;;2.17;;
69087;SDS011;56190;43.562;5.036;2023-02-01T06:28:53;4.72;;;3.70;;
69087;SDS011;56190;43.562;5.036;2023-02-01T06:31:18;5.07;;;3.70;;
69087;SDS011;56190;43.562;5.036;2023-02-01T06:33:44;4.43;;;3.53;;
69087;SDS011;56190;43.562;5.036;2023-02-01T06:36:10;4.80;;;4.25;;
69087;SDS011;56190;43.562;5.036;2023-02-01T06:38:37;3.50;;;2.17;;
69087;SDS011;56190;43.562;5.036;2023-02-01T06:41:03;3.20;;;2.25;;
69087;SDS011;56190;43.562;5.036;2023-02-01T06:43:29;4.45;;;2.80;;
69087;SDS011;56190;43.562;5.036;2023-02-01T06:45:58;6.57;;;4.75;;
69087;SDS011;56190;43.562;5.036;2023-02-01T06:48:24;4.82;;;2.88;;
69087;SDS011;56190;43.562;5.036;2023-02-01T06:50:49;3.88;;;3.13;;
69087;SDS011;56190;43.562;5.036;2023-02-01T06:53:15;4.57;;;3.72;;
69087;SDS011;56190;43.562;5.036;2023-02-01T06:55:40;3.78;;;2.70;;
69087;SDS011;56190;43.562;5.036;2023-02-01T06:58:06;3.00;;;2.33;;
69087;SDS011;56190;43.562;5.036;2023-02-01T07:00:31;5.38;;;3.10;;
69087;SDS011;56190;43.562;5.036;2023-02-01T07:02:57;4.32;;;2.88;;
69087;SDS011;56190;43.562;5.036;2023-02-01T07:05:22;2.88;;;2.22;;
69087;SDS011;56190;43.562;5.036;2023-02-01T07:07:48;5.28;;;3.50;;
69087;SDS011;56190;43.562;5.036;2023-02-01T07:10:13;5.50;;;3.60;;
69087;SDS011;56190;43.562;5.036;2023-02-01T07:12:38;4.38;;;2.40;;
69087;SDS011;56190;43.562;5.036;2023-02-01T07:15:04;3.25;;;2.45;;
69087;SDS011;56190;43.562;5.036;2023-02-01T07:17:29;3.58;;;2.22;;
69087;SDS011;56190;43.562;5.036;2023-02-01T07:19:55;4.10;;;2.58;;
69087;SDS011;56190;43.562;5.036;2023-02-01T07:22:20;3.90;;;2.50;;
69087;SDS011;56190;43.562;5.036;2023-02-01T07:24:46;4.65;;;2.40;;
69087;SDS011;56190;43.562;5.036;2023-02-01T07:27:11;3.92;;;2.28;;
69087;SDS011;56190;43.562;5.036;2023-02-01T07:29:36;3.05;;;2.65;;
69087;SDS011;56190;43.562;5.036;2023-02-01T07:32:01;3.35;;;2.35;;
69087;SDS011;56190;43.562;5.036;2023-02-01T07:34:27;2.40;;;2.00;;
69087;SDS011;56190;43.562;5.036;2023-02-01T07:36:53;2.53;;;2.08;;
69087;SDS011;56190;43.562;5.036;2023-02-01T07:39:18;3.42;;;1.98;;
69087;SDS011;56190;43.562;5.036;2023-02-01T07:41:43;2.97;;;2.30;;
69087;SDS011;56190;43.562;5.036;2023-02-01T07:44:09;3.85;;;2.40;;
69087;SDS011;56190;43.562;5.036;2023-02-01T07:46:34;4.53;;;1.92;;
69087;SDS011;56190;43.562;5.036;2023-02-01T07:48:59;2.65;;;2.20;;
69087;SDS011;56190;43.562;5.036;2023-02-01T07:51:25;4.07;;;2.35;;
69087;SDS011;56190;43.562;5.036;2023-02-01T07:53:50;2.80;;;1.80;;
69087;SDS011;56190;43.562;5.036;2023-02-01T07:56:16;2.00;;;1.80;;
69087;SDS011;56190;43.562;5.036;2023-02-01T07:58:42;4.55;;;2.10;;
69087;SDS011;56190;43.562;5.036;2023-02-01T08:01:26;4.80;;;2.15;;
69087;SDS011;56190;43.562;5.036;2023-02-01T08:03:52;2.65;;;2.15;;
69087;SDS011;56190;43.562;5.036;2023-02-01T08:06:18;3.90;;;2.05;;
69087;SDS011;56190;43.562;5.036;2023-02-01T08:08:44;3.20;;;2.03;;
69087;SDS011;56190;43.562;5.036;2023-02-01T08:11:10;2.58;;;1.90;;
69087;SDS011;56190;43.562;5.036;2023-02-01T08:13:35;4.38;;;2.50;;
69087;SDS011;56190;43.562;5.036;2023-02-01T08:16:01;3.40;;;2.22;;
69087;SDS011;56190;43.562;5.036;2023-02-01T08:18:27;2.70;;;2.00;;
69087;SDS011;56190;43.562;5.036;2023-02-01T08:20:52;4.03;;;2.47;;
69087;SDS011;56190;43.562;5.036;2023-02-01T08:23:18;2.78;;;2.28;;
69087;SDS011;56190;43.562;5.036;2023-02-01T08:25:43;2.90;;;2.10;;
69087;SDS011;56190;43.562;5.036;2023-02-01T08:28:09;4.55;;;2.17;;
69087;SDS011;56190;43.562;5.036;2023-02-01T08:30:36;3.17;;;2.15;;
69087;SDS011;56190;43.562;5.036;2023-02-01T08:33:01;5.18;;;3.13;;
69087;SDS011;56190;43.562;5.036;2023-02-01T08:35:26;4.97;;;3.25;;
69087;SDS011;56190;43.562;5.036;2023-02-01T08:37:51;5.10;;;2.63;;
69087;SDS011;56190;43.562;5.036;2023-02-01T08:40:17;4.10;;;3.10;;
69087;SDS011;56190;43.562;5.036;2023-02-01T08:42:42;5.50;;;2.75;;
69087;SDS011;56190;43.562;5.036;2023-02-01T08:45:25;4.60;;;2.80;;
69087;SDS011;56190;43.562;5.036;2023-02-01T08:47:52;2.85;;;2.20;;
69087;SDS011;56190;43.562;5.036;2023-02-01T08:50:18;3.90;;;2.58;;
69087;SDS011;56190;43.562;5.036;2023-02-01T08:52:43;4.55;;;2.90;;
69087;SDS011;56190;43.562;5.036;2023-02-01T08:55:09;4.50;;;3.05;;
69087;SDS011;56190;43.562;5.036;2023-02-01T08:57:35;3.63;;;2.50;;
69087;SDS011;56190;43.562;5.036;2023-02-01T09:00:00;3.53;;;2.40;;
69087;SDS011;56190;43.562;5.036;2023-02-01T09:02:26;4.25;;;2.13;;
69087;SDS011;56190;43.562;5.036;2023-02-01T09:04:51;4.90;;;2.88;;
69087;SDS011;56190;43.562;5.036;2023-02-01T09:07:17;4.97;;;3.13;;
69087;SDS011;56190;43.562;5.036;2023-02-01T09:09:43;4.55;;;3.58;;
69087;SDS011;56190;43.562;5.036;2023-02-01T09:12:08;3.92;;;2.40;;
69087;SDS011;56190;43.562;5.036;2023-02-01T09:14:33;4.57;;;2.60;;
69087;SDS011;56190;43.562;5.036;2023-02-01T09:16:59;3.88;;;2.28;;
69087;SDS011;56190;43.562;5.036;2023-02-01T09:19:24;2.92;;;2.20;;
69087;SDS011;56190;43.562;5.036;2023-02-01T09:21:49;5.05;;;2.22;;
69087;SDS011;56190;43.562;5.036;2023-02-01T09:24:15;4.53;;;2.75;;
69087;SDS011;56190;43.562;5.036;2023-02-01T09:26:40;6.30;;;2.70;;
69087;SDS011;56190;43.562;5.036;2023-02-01T09:29:05;3.90;;;2.60;;
69087;SDS011;56190;43.562;5.036;2023-02-01T09:31:37;3.88;;;2.30;;
69087;SDS011;56190;43.562;5.036;2023-02-01T09:34:02;4.80;;;2.30;;
69087;SDS011;56190;43.562;5.036;2023-02-01T09:36:28;5.88;;;3.30;;
69087;SDS011;56190;43.562;5.036;2023-02-01T09:38:53;4.95;;;2.35;;
69087;SDS011;56190;43.562;5.036;2023-02-01T09:46:26;4.43;;;2.30;;
69087;SDS011;56190;43.562;5.036;2023-02-01T09:48:56;3.65;;;2.10;;
69087;SDS011;56190;43.562;5.036;2023-02-01T09:51:27;3.40;;;1.92;;
69087;SDS011;56190;43.562;5.036;2023-02-01T09:56:23;5.90;;;2.00;;
69087;SDS011;56190;43.562;5.036;2023-02-01T10:01:18;1.98;;;1.42;;
69087;SDS011;56190;43.562;5.036;2023-02-01T10:03:44;2.47;;;1.90;;
69087;SDS011;56190;43.562;5.036;2023-02-01T10:09:04;1.98;;;1.10;;
69087;SDS011;56190;43.562;5.036;2023-02-01T10:19:39;1.65;;;0.93;;
69087;SDS011;56190;43.562;5.036;2023-02-01T10:22:10;1.13;;;0.75;;
69087;SDS011;56190;43.562;5.036;2023-02-01T10:27:11;1.70;;;1.00;;
69087;SDS011;56190;43.562;5.036;2023-02-01T10:29:37;1.35;;;0.95;;
69087;SDS011;56190;43.562;5.036;2023-02-01T10:32:03;2.80;;;1.30;;
69087;SDS011;56190;43.562;5.036;2023-02-01T10:34:34;1.85;;;0.77;;
69087;SDS011;56190;43.562;5.036;2023-02-01T10:37:00;1.27;;;0.65;;
69087;SDS011;56190;43.562;5.036;2023-02-01T10:39:26;0.80;;;0.50;;
69087;SDS011;56190;43.562;5.036;2023-02-01T10:41:51;2.28;;;0.80;;
69087;SDS011;56190;43.562;5.036;2023-02-01T10:44:18;0.98;;;0.65;;
69087;SDS011;56190;43.562;5.036;2023-02-01T10:46:44;2.17;;;0.60;;
69087;SDS011;56190;43.562;5.036;2023-02-01T10:49:58;0.90;;;0.60;;
69087;SDS011;56190;43.562;5.036;2023-02-01T10:54:37;0.80;;;0.60;;
69087;SDS011;56190;43.562;5.036;2023-02-01T10:57:09;1.52;;;0.50;;
69087;SDS011;56190;43.562;5.036;2023-02-01T10:59:35;1.33;;;0.68;;
69087;SDS011;56190;43.562;5.036;2023-02-01T11:02:25;0.80;;;0.52;;
69087;SDS011;56190;43.562;5.036;2023-02-01T11:04:46;1.90;;;0.50;;
69087;SDS011;56190;43.562;5.036;2023-02-01T11:07:16;2.30;;;0.70;;
69087;SDS011;56190;43.562;5.036;2023-02-01T11:09:48;4.38;;;1.00;;
69087;SDS011;56190;43.562;5.036;2023-02-01T11:12:21;1.92;;;1.05;;
69087;SDS011;56190;43.562;5.036;2023-02-01T11:14:47;2.15;;;0.70;;
69087;SDS011;56190;43.562;5.036;2023-02-01T11:19:45;0.80;;;0.68;;
69087;SDS011;56190;43.562;5.036;2023-02-01T11:22:10;2.40;;;0.73;;
69087;SDS011;56190;43.562;5.036;2023-02-01T11:24:36;1.60;;;0.80;;
69087;SDS011;56190;43.562;5.036;2023-02-01T11:27:05;4.35;;;0.93;;
69087;SDS011;56190;43.562;5.036;2023-02-01T11:29:35;2.88;;;0.63;;
69087;SDS011;56190;43.562;5.036;2023-02-01T11:32:02;1.42;;;0.60;;
69087;SDS011;56190;43.562;5.036;2023-02-01T11:34:31;3.38;;;0.68;;
69087;SDS011;56190;43.562;5.036;2023-02-01T11:36:58;1.92;;;0.70;;
69087;SDS011;56190;43.562;5.036;2023-02-01T11:39:31;0.75;;;0.60;;
69087;SDS011;56190;43.562;5.036;2023-02-01T11:44:26;1.00;;;0.77;;
69087;SDS011;56190;43.562;5.036;2023-02-01T11:46:54;1.50;;;0.63;;
69087;SDS011;56190;43.562;5.036;2023-02-01T11:49:25;5.13;;;0.77;;
69087;SDS011;56190;43.562;5.036;2023-02-01T11:51:59;8.25;;;1.13;;
69087;SDS011;56190;43.562;5.036;2023-02-01T12:04:47;1.98;;;0.73;;
69087;SDS011;56190;43.562;5.036;2023-02-01T12:07:50;1.55;;;0.50;;
69087;SDS011;56190;43.562;5.036;2023-02-01T12:15:46;1.25;;;0.50;;
69087;SDS011;56190;43.562;5.036;2023-02-01T12:20:57;2.67;;;0.60;;
69087;SDS011;56190;43.562;5.036;2023-02-01T12:33:52;1.33;;;0.60;;
69087;SDS011;56190;43.562;5.036;2023-02-01T12:43:56;0.73;;;0.50;;
69087;SDS011;56190;43.562;5.036;2023-02-01T12:46:26;1.98;;;0.55;;
69087;SDS011;56190;43.562;5.036;2023-02-01T12:51:18;3.65;;;0.60;;
69087;SDS011;56190;43.562;5.036;2023-02-01T12:56:17;1.05;;;0.60;;
69087;SDS011;56190;43.562;5.036;2023-02-01T12:58:46;2.25;;;0.60;;
69087;SDS011;56190;43.562;5.036;2023-02-01T13:01:30;2.45;;;0.50;;
69087;SDS011;56190;43.562;5.036;2023-02-01T13:06:45;3.47;;;0.40;;
69087;SDS011;56190;43.562;5.036;2023-02-01T13:11:48;0.77;;;0.40;;
69087;SDS011;56190;43.562;5.036;2023-02-01T13:16:47;5.28;;;0.88;;
69087;SDS011;56190;43.562;5.036;2023-02-01T13:21:40;1.35;;;0.45;;
69087;SDS011;56190;43.562;5.036;2023-02-01T13:24:10;1.95;;;0.50;;
69087;SDS011;56190;43.562;5.036;2023-02-01T13:26:41;1.77;;;0.50;;
69087;SDS011;56190;43.562;5.036;2023-02-01T13:29:08;7.70;;;0.88;;
69087;SDS011;56190;43.562;5.036;2023-02-01T13:42:05;2.90;;;0.52;;
69087;SDS011;56190;43.562;5.036;2023-02-01T13:44:41;2.20;;;0.60;;
69087;SDS011;56190;43.562;5.036;2023-02-01T13:47:24;2.38;;;0.68;;
69087;SDS011;56190;43.562;5.036;2023-02-01T13:49:51;2.78;;;0.60;;
69087;SDS011;56190;43.562;5.036;2023-02-01T13:52:27;2.30;;;0.70;;
69087;SDS011;56190;43.562;5.036;2023-02-01T13:55:03;1.77;;;0.77;;
69087;SDS011;56190;43.562;5.036;2023-02-01T13:57:39;1.95;;;0.80;;
69087;SDS011;56190;43.562;5.036;2023-02-01T14:00:06;1.30;;;0.70;;
69087;SDS011;56190;43.562;5.036;2023-02-01T14:05:01;1.27;;;0.63;;
69087;SDS011;56190;43.562;5.036;2023-02-01T14:07:26;1.27;;;0.65;;
69087;SDS011;56190;43.562;5.036;2023-02-01T14:09:51;1.60;;;0.70;;
69087;SDS011;56190;43.562;5.036;2023-02-01T14:15:19;1.27;;;0.60;;
69087;SDS011;56190;43.562;5.036;2023-02-01T14:17:46;1.70;;;0.70;;
69087;SDS011;56190;43.562;5.036;2023-02-01T14:23:02;1.92;;;0.60;;
69087;SDS011;56190;43.562;5.036;2023-02-01T14:25:34;3.20;;;0.80;;
69087;SDS011;56190;43.562;5.036;2023-02-01T14:27:59;1.45;;;0.65;;
69087;SDS011;56190;43.562;5.036;2023-02-01T14:30:26;1.00;;;0.65;;
69087;SDS011;56190;43.562;5.036;2023-02-01T14:32:51;1.85;;;0.75;;
69087;SDS011;56190;43.562;5.036;2023-02-01T14:35:20;1.70;;;0.60;;
69087;SDS011;56190;43.562;5.036;2023-02-01T14:37:46;2.00;;;0.60;;
69087;SDS011;56190;43.562;5.036;2023-02-01T14:42:39;2.28;;;0.60;;
69087;SDS011;56190;43.562;5.036;2023-02-01T15:00:56;2.60;;;0.80;;
69087;SDS011;56190;43.562;5.036;2023-02-01T15:05:56;1.38;;;0.82;;
69087;SDS011;56190;43.562;5.036;2023-02-01T15:08:43;1.65;;;0.80;;
69087;SDS011;56190;43.562;5.036;2023-02-01T15:11:10;2.33;;;1.00;;
69087;SDS011;56190;43.562;5.036;2023-02-01T15:13:36;3.22;;;0.98;;
69087;SDS011;56190;43.562;5.036;2023-02-01T15:16:03;1.98;;;0.80;;
69087;SDS011;56190;43.562;5.036;2023-02-01T15:18:28;1.70;;;1.17;;
69087;SDS011;56190;43.562;5.036;2023-02-01T15:20:57;1.70;;;0.75;;
69087;SDS011;56190;43.562;5.036;2023-02-01T15:23:23;1.65;;;0.85;;
69087;SDS011;56190;43.562;5.036;2023-02-01T15:25:48;1.85;;;0.65;;
69087;SDS011;56190;43.562;5.036;2023-02-01T15:28:14;1.88;;;0.90;;
69087;SDS011;56190;43.562;5.036;2023-02-01T15:30:40;1.42;;;0.77;;
69087;SDS011;56190;43.562;5.036;2023-02-01T15:33:17;2.03;;;1.00;;
69087;SDS011;56190;43.562;5.036;2023-02-01T15:35:45;2.90;;;1.02;;
69087;SDS011;56190;43.562;5.036;2023-02-01T15:38:21;2.75;;;1.20;;
69087;SDS011;56190;43.562;5.036;2023-02-01T15:40:56;2.88;;;1.10;;
69087;SDS011;56190;43.562;5.036;2023-02-01T15:43:23;5.55;;;1.30;;
69087;SDS011;56190;43.562;5.036;2023-02-01T15:45:48;5.32;;;1.40;;
69087;SDS011;56190;43.562;5.036;2023-02-01T15:48:20;2.42;;;1.38;;
69087;SDS011;56190;43.562;5.036;2023-02-01T15:50:47;3.65;;;1.30;;
69087;SDS011;56190;43.562;5.036;2023-02-01T15:53:17;1.88;;;1.55;;
69087;SDS011;56190;43.562;5.036;2023-02-01T15:55:43;3.08;;;1.20;;
69087;SDS011;56190;43.562;5.036;2023-02-01T15:58:13;2.42;;;1.30;;
69087;SDS011;56190;43.562;5.036;2023-02-01T16:00:46;4.65;;;1.40;;
69087;SDS011;56190;43.562;5.036;2023-02-01T16:03:26;1.63;;;1.25;;
69087;SDS011;56190;43.562;5.036;2023-02-01T16:05:59;2.20;;;1.60;;
69087;SDS011;56190;43.562;5.036;2023-02-01T16:08:26;2.13;;;1.10;;
69087;SDS011;56190;43.562;5.036;2023-02-01T16:10:52;2.67;;;1.10;;
69087;SDS011;56190;43.562;5.036;2023-02-01T16:13:18;1.63;;;1.33;;
69087;SDS011;56190;43.562;5.036;2023-02-01T16:15:45;4.03;;;1.23;;
69087;SDS011;56190;43.562;5.036;2023-02-01T16:18:10;2.50;;;1.50;;
69087;SDS011;56190;43.562;5.036;2023-02-01T16:20:36;2.58;;;1.23;;
69087;SDS011;56190;43.562;5.036;2023-02-01T16:23:02;3.25;;;1.20;;
69087;SDS011;56190;43.562;5.036;2023-02-01T16:25:28;3.78;;;1.20;;
69087;SDS011;56190;43.562;5.036;2023-02-01T16:27:53;1.88;;;1.13;;
69087;SDS011;56190;43.562;5.036;2023-02-01T16:30:19;2.55;;;1.30;;
69087;SDS011;56190;43.562;5.036;2023-02-01T16:32:48;2.20;;;1.10;;
69087;SDS011;56190;43.562;5.036;2023-02-01T16:35:20;2.00;;;1.52;;
69087;SDS011;56190;43.562;5.036;2023-02-01T16:40:15;3.25;;;1.55;;
69087;SDS011;56190;43.562;5.036;2023-02-01T16:42:41;3.13;;;1.50;;
69087;SDS011;56190;43.562;5.036;2023-02-01T16:45:06;2.55;;;1.60;;
69087;SDS011;56190;43.562;5.036;2023-02-01T16:47:32;2.22;;;1.42;;
69087;SDS011;56190;43.562;5.036;2023-02-01T16:49:57;3.22;;;1.45;;
69087;SDS011;56190;43.562;5.036;2023-02-01T16:52:24;5.75;;;1.92;;
69087;SDS011;56190;43.562;5.036;2023-02-01T16:54:49;3.40;;;1.40;;
69087;SDS011;56190;43.562;5.036;2023-02-01T16:57:16;6.15;;;1.70;;
69087;SDS011;56190;43.562;5.036;2023-02-01T16:59:42;3.35;;;1.67;;
69087;SDS011;56190;43.562;5.036;2023-02-01T17:02:14;3.00;;;1.33;;
69087;SDS011;56190;43.562;5.036;2023-02-01T17:04:40;3.38;;;1.63;;
69087;SDS011;56190;43.562;5.036;2023-02-01T17:07:05;2.28;;;1.67;;
69087;SDS011;56190;43.562;5.036;2023-02-01T17:09:37;3.65;;;1.55;;
69087;SDS011;56190;43.562;5.036;2023-02-01T17:12:02;2.53;;;1.50;;
69087;SDS011;56190;43.562;5.036;2023-02-01T17:14:29;3.30;;;1.80;;
69087;SDS011;56190;43.562;5.036;2023-02-01T17:16:55;2.70;;;1.75;;
69087;SDS011;56190;43.562;5.036;2023-02-01T17:19:21;3.55;;;2.20;;
69087;SDS011;56190;43.562;5.036;2023-02-01T17:21:50;3.05;;;1.88;;
69087;SDS011;56190;43.562;5.036;2023-02-01T17:24:19;3.85;;;2.00;;